createdAt,value
2019-03-01T00:01:16.384Z,14.38
2019-03-01T00:03:44.698Z,16.15
2019-03-01T00:06:22.102Z,15.38
2019-03-01T00:09:13.338Z,17.00
2019-03-01T00:12:00.603Z,11.80
2019-03-01T00:15:22.140Z,16.20
2019-03-01T00:18:16.251Z,12.30
2019-03-01T00:21:10.920Z,12.43
2019-03-01T00:24:23.314Z,14.45
2019-03-01T00:27:22.630Z,7.80
2019-03-01T00:30:35.628Z,12.50
2019-03-01T00:33:55.440Z,13.05
2019-03-01T00:37:19.270Z,11.80
2019-03-01T00:39:59.630Z,13.53
2019-03-01T00:43:05.200Z,13.95
2019-03-01T00:45:33.336Z,10.72
2019-03-01T00:48:01.453Z,13.98
2019-03-01T00:50:29.807Z,13.40
2019-03-01T00:52:57.984Z,15.78
2019-03-01T00:55:26.153Z,13.32
2019-03-01T00:57:54.280Z,11.65
2019-03-01T01:00:27.933Z,14.30
2019-03-01T01:02:56.145Z,14.33
2019-03-01T01:05:24.286Z,15.60
2019-03-01T01:07:52.454Z,14.07
2019-03-01T01:10:20.669Z,15.95
2019-03-01T01:12:48.863Z,16.40
2019-03-01T01:15:16.983Z,17.37
2019-03-01T01:17:45.144Z,15.90
2019-03-01T01:20:13.352Z,15.43
2019-03-01T01:22:41.817Z,15.25
2019-03-01T01:25:10.116Z,8.85
2019-03-01T01:27:41.009Z,13.75
2019-03-01T01:30:10.723Z,14.55
2019-03-01T01:32:38.814Z,14.98
2019-03-01T01:35:06.988Z,14.25
2019-03-01T01:37:35.159Z,13.45
2019-03-01T01:40:03.375Z,13.58
2019-03-01T01:42:31.547Z,13.98
2019-03-01T01:44:59.745Z,15.40
2019-03-01T01:47:28.010Z,16.02
2019-03-01T01:49:56.187Z,15.08
2019-03-01T01:52:24.320Z,14.93
2019-03-01T01:54:52.522Z,13.80
2019-03-01T01:57:20.667Z,15.13
2019-03-01T01:59:48.775Z,13.65
2019-03-01T02:02:16.941Z,12.05
2019-03-01T02:04:45.156Z,12.28
2019-03-01T02:07:13.583Z,11.83
2019-03-01T02:09:41.778Z,11.75
2019-03-01T02:12:10.239Z,13.53
2019-03-01T02:14:39.105Z,13.50
2019-03-01T02:17:07.379Z,15.95
2019-03-01T02:19:35.594Z,13.00
2019-03-01T02:22:03.719Z,15.35
2019-03-01T02:24:31.892Z,12.68
2019-03-01T02:27:24.072Z,14.53
2019-03-01T02:29:52.258Z,13.75
2019-03-01T02:32:28.866Z,13.85
2019-03-01T02:34:57.064Z,15.53
2019-03-01T02:37:25.273Z,14.40
2019-03-01T02:39:53.463Z,15.55
2019-03-01T02:42:21.706Z,14.95
2019-03-01T02:44:49.890Z,15.75
2019-03-01T02:47:18.053Z,14.38
2019-03-01T02:49:46.246Z,16.02
2019-03-01T02:52:14.600Z,16.57
2019-03-01T02:54:43.073Z,14.98
2019-03-01T02:57:11.508Z,16.97
2019-03-01T02:59:39.671Z,14.98
2019-03-01T03:02:07.908Z,16.57
2019-03-01T03:04:36.255Z,17.12
2019-03-01T03:07:23.415Z,17.45
2019-03-01T03:09:51.651Z,16.50
2019-03-01T03:15:09.127Z,16.57
2019-03-01T03:17:37.245Z,17.73
2019-03-01T03:20:05.867Z,18.73
2019-03-01T03:22:34.037Z,16.57
2019-03-01T03:25:02.234Z,17.15
2019-03-01T03:27:30.410Z,17.95
2019-03-01T03:29:58.531Z,16.23
2019-03-01T03:32:26.986Z,19.85
2019-03-01T03:34:55.116Z,14.93
2019-03-01T03:37:23.211Z,19.90
2019-03-01T03:39:51.354Z,16.57
2019-03-01T03:42:19.534Z,16.42
2019-03-01T03:44:47.734Z,19.50
2019-03-01T03:47:15.879Z,17.10
2019-03-01T03:49:44.223Z,20.52
2019-03-01T03:52:13.022Z,18.10
2019-03-01T03:54:41.418Z,19.37
2019-03-01T03:57:09.574Z,17.17
2019-03-01T03:59:37.720Z,17.67
2019-03-01T04:02:06.281Z,18.82
2019-03-01T04:04:34.482Z,16.75
2019-03-01T04:07:02.622Z,18.12
2019-03-01T04:09:31.257Z,18.48
2019-03-01T04:11:59.384Z,18.48
2019-03-01T04:14:27.509Z,17.62
2019-03-01T04:16:55.780Z,17.25
2019-03-01T04:19:24.010Z,20.17
2019-03-01T04:21:52.351Z,16.95
2019-03-01T04:24:20.501Z,21.62
2019-03-01T04:26:49.001Z,17.48
2019-03-01T04:29:17.447Z,18.07
2019-03-01T04:31:46.009Z,16.50
2019-03-01T04:34:14.437Z,18.67
2019-03-01T04:36:42.601Z,20.70
2019-03-01T04:39:10.740Z,18.98
2019-03-01T04:41:38.996Z,20.15
2019-03-01T04:44:07.797Z,18.48
2019-03-01T04:46:35.925Z,20.77
2019-03-01T04:49:04.062Z,18.85
2019-03-01T04:51:55.716Z,19.65
2019-03-01T04:54:24.012Z,19.42
2019-03-01T04:56:52.234Z,17.25
2019-03-01T04:59:20.663Z,19.40
2019-03-01T05:01:48.766Z,19.73
2019-03-01T05:04:16.973Z,19.57
2019-03-01T05:06:45.127Z,17.45
2019-03-01T05:09:13.588Z,19.17
2019-03-01T05:11:41.845Z,18.77
2019-03-01T05:14:10.062Z,19.02
2019-03-01T05:16:38.261Z,20.23
2019-03-01T05:19:06.449Z,20.10
2019-03-01T05:21:34.577Z,17.35
2019-03-01T05:24:02.890Z,18.30
2019-03-01T05:26:34.996Z,16.82
2019-03-01T05:29:03.194Z,17.12
2019-03-01T05:31:31.685Z,19.80
2019-03-01T05:34:00.063Z,20.17
2019-03-01T05:36:28.294Z,19.60
2019-03-01T05:38:56.477Z,19.70
2019-03-01T05:41:24.789Z,17.77
2019-03-01T05:43:52.961Z,18.65
2019-03-01T05:46:21.560Z,19.30
2019-03-01T05:48:49.705Z,19.42
2019-03-01T05:51:17.865Z,19.52
2019-03-01T05:53:46.170Z,19.42
2019-03-01T05:56:14.375Z,17.50
2019-03-01T05:59:07.277Z,17.85
2019-03-01T06:01:43.960Z,21.10
2019-03-01T06:04:41.280Z,18.75
2019-03-01T06:07:59.279Z,17.98
2019-03-01T06:10:51.624Z,18.42
2019-03-01T06:14:06.150Z,19.50
2019-03-01T06:17:14.484Z,19.62
2019-03-01T06:20:11.811Z,19.42
2019-03-01T06:23:12.031Z,19.80
2019-03-01T06:26:18.300Z,18.73
2019-03-01T06:29:45.527Z,20.70
2019-03-01T06:32:54.317Z,21.23
2019-03-01T06:35:49.616Z,19.10
2019-03-01T06:39:18.125Z,20.45
2019-03-01T06:42:15.697Z,20.55
2019-03-01T06:45:16.166Z,19.90
2019-03-01T06:47:47.551Z,21.02
2019-03-01T06:50:20.491Z,20.65
2019-03-01T06:52:48.845Z,20.50
2019-03-01T06:55:35.787Z,22.30
2019-03-01T06:58:03.948Z,20.72
2019-03-01T07:03:45.462Z,19.55
2019-03-01T07:06:13.663Z,20.88
2019-03-01T07:08:41.983Z,21.30
2019-03-01T07:11:10.160Z,22.15
2019-03-01T07:13:38.526Z,21.30
2019-03-01T07:16:06.962Z,20.12
2019-03-01T07:18:35.270Z,22.07
2019-03-01T07:21:03.556Z,22.20
2019-03-01T07:23:36.780Z,22.58
2019-03-01T07:26:01.690Z,21.62
2019-03-01T07:28:30.013Z,20.15
2019-03-01T07:30:58.282Z,20.20
2019-03-01T07:33:26.953Z,19.67
2019-03-01T07:35:55.099Z,20.23
2019-03-01T07:38:23.243Z,20.02
2019-03-01T07:40:51.483Z,19.55
2019-03-01T07:43:19.595Z,21.68
2019-03-01T07:45:47.837Z,20.65
2019-03-01T07:48:16.452Z,20.30
2019-03-01T07:50:44.805Z,20.32
2019-03-01T07:53:13.265Z,19.98
2019-03-01T07:55:41.481Z,19.77
2019-03-01T07:58:09.859Z,18.73
2019-03-01T08:00:38.207Z,19.85
2019-03-01T08:03:06.355Z,20.52
2019-03-01T08:05:35.608Z,21.57
2019-03-01T08:08:04.868Z,19.67
2019-03-01T08:10:33.026Z,19.85
2019-03-01T08:13:21.701Z,19.17
2019-03-01T08:15:50.032Z,19.35
2019-03-01T08:18:18.246Z,20.40
2019-03-01T08:20:46.492Z,18.87
2019-03-01T08:23:14.802Z,18.45
2019-03-01T08:25:42.944Z,21.50
2019-03-01T08:28:11.264Z,19.77
2019-03-01T08:30:42.454Z,21.82
2019-03-01T08:33:09.532Z,21.15
2019-03-01T08:35:37.871Z,22.50
2019-03-01T08:38:06.051Z,21.93
2019-03-01T08:40:34.304Z,19.12
2019-03-01T08:43:02.455Z,18.55
2019-03-01T08:45:32.953Z,21.05
2019-03-01T08:48:00.608Z,19.50
2019-03-01T08:50:29.031Z,19.23
2019-03-01T08:52:57.377Z,19.75
2019-03-01T08:55:25.741Z,23.32
2019-03-01T08:57:54.202Z,15.18
2019-03-01T09:00:26.984Z,16.67
2019-03-01T09:02:57.135Z,19.48
2019-03-01T09:05:25.497Z,20.37
2019-03-01T09:07:53.751Z,20.20
2019-03-01T09:10:22.128Z,19.12
2019-03-01T09:12:50.998Z,18.90
2019-03-01T09:15:19.515Z,20.60
2019-03-01T09:17:47.798Z,21.62
2019-03-01T09:20:16.390Z,21.85
2019-03-01T09:22:44.840Z,17.80
2019-03-01T09:25:13.335Z,17.48
2019-03-01T09:27:41.784Z,19.32
2019-03-01T09:30:16.400Z,17.65
2019-03-01T09:32:44.710Z,16.90
2019-03-01T09:35:32.207Z,14.05
2019-03-01T09:38:01.045Z,16.30
2019-03-01T09:40:29.698Z,17.52
2019-03-01T09:42:57.993Z,16.77
2019-03-01T09:45:35.570Z,16.05
2019-03-01T09:47:56.150Z,14.70
2019-03-01T09:50:24.439Z,18.48
2019-03-01T09:52:55.476Z,16.20
2019-03-01T09:55:22.634Z,16.40
2019-03-01T09:57:50.855Z,17.17
2019-03-01T10:00:21.721Z,18.27
2019-03-01T10:02:49.882Z,21.15
2019-03-01T10:05:18.693Z,19.98
2019-03-01T10:07:47.001Z,19.15
2019-03-01T10:10:18.923Z,19.42
2019-03-01T10:12:47.369Z,19.10
2019-03-01T10:15:15.625Z,19.20
2019-03-01T10:17:44.105Z,16.82
2019-03-01T10:20:13.615Z,16.87
2019-03-01T10:22:41.892Z,17.05
2019-03-01T10:25:11.954Z,15.38
2019-03-01T10:27:40.476Z,15.53
2019-03-01T10:30:15.090Z,13.32
2019-03-01T10:32:43.379Z,16.27
2019-03-01T10:35:12.496Z,14.40
2019-03-01T10:37:40.648Z,17.55
2019-03-01T10:40:10.644Z,14.05
2019-03-01T10:42:38.855Z,9.70
2019-03-01T10:45:09.068Z,18.17
2019-03-01T10:47:37.360Z,15.93
2019-03-01T10:50:06.328Z,16.80
2019-03-01T10:52:34.453Z,15.32
2019-03-01T10:55:02.592Z,18.20
2019-03-01T10:57:30.774Z,23.92
2019-03-01T10:59:59.211Z,20.23
2019-03-01T11:02:27.397Z,21.45
2019-03-01T11:04:55.752Z,14.15
2019-03-01T11:07:24.027Z,26.33
2019-03-01T11:09:52.231Z,32.73
2019-03-01T11:12:20.638Z,19.95
2019-03-01T11:14:49.151Z,34.55
2019-03-01T11:17:17.486Z,30.88
2019-03-01T11:19:45.892Z,36.40
2019-03-01T11:22:14.223Z,31.37
2019-03-01T11:24:42.368Z,31.33
2019-03-01T11:27:13.036Z,38.15
2019-03-01T11:29:40.540Z,27.27
2019-03-01T11:32:08.784Z,31.50
2019-03-01T11:34:37.034Z,29.77
2019-03-01T11:37:05.254Z,27.25
2019-03-01T11:39:33.536Z,30.10
2019-03-01T11:42:02.004Z,31.87
2019-03-01T11:44:30.248Z,31.90
2019-03-01T11:46:58.472Z,31.30
2019-03-01T11:49:26.631Z,28.98
2019-03-01T11:51:54.847Z,23.60
2019-03-01T11:54:23.465Z,22.20
2019-03-01T11:56:53.716Z,28.40
2019-03-01T11:59:22.345Z,29.60
2019-03-01T12:01:50.625Z,31.20
2019-03-01T12:04:19.087Z,29.98
2019-03-01T12:06:47.955Z,27.65
2019-03-01T12:09:16.334Z,30.35
2019-03-01T12:11:44.631Z,30.85
2019-03-01T12:14:12.767Z,28.38
2019-03-01T12:16:41.113Z,28.98
2019-03-01T12:19:09.482Z,32.55
2019-03-01T12:21:38.022Z,30.17
2019-03-01T12:24:06.302Z,24.90
2019-03-01T12:26:34.668Z,28.30
2019-03-01T12:29:02.983Z,30.08
2019-03-01T12:31:31.410Z,24.95
2019-03-01T12:33:59.805Z,31.48
2019-03-01T12:36:28.091Z,31.37
2019-03-01T12:38:56.350Z,24.63
2019-03-01T12:41:24.818Z,29.40
2019-03-01T12:43:53.213Z,27.73
2019-03-01T12:46:21.508Z,27.67
2019-03-01T12:48:49.706Z,25.88
2019-03-01T12:51:17.917Z,24.63
2019-03-01T12:53:46.158Z,27.37
2019-03-01T12:56:14.371Z,22.60
2019-03-01T12:58:42.567Z,26.80
2019-03-01T13:01:10.740Z,21.00
2019-03-01T13:03:40.663Z,27.58
2019-03-01T13:06:08.958Z,24.63
2019-03-01T13:08:37.307Z,23.35
2019-03-01T13:11:05.708Z,16.20
2019-03-01T13:13:34.656Z,22.20
2019-03-01T13:16:04.037Z,19.12
2019-03-01T13:18:32.251Z,19.73
2019-03-01T13:21:00.501Z,9.73
2019-03-01T13:23:28.948Z,16.35
2019-03-01T13:25:57.971Z,13.30
2019-03-01T13:28:26.503Z,11.70
2019-03-01T13:30:54.731Z,16.02
2019-03-01T13:33:23.123Z,11.33
2019-03-01T13:35:51.688Z,15.10
2019-03-01T13:38:20.093Z,13.80
2019-03-01T13:40:48.727Z,14.13
2019-03-01T13:43:23.791Z,12.80
2019-03-01T13:45:53.459Z,15.50
2019-03-01T13:48:22.762Z,13.22
2019-03-01T13:50:51.648Z,13.32
2019-03-01T13:53:19.989Z,15.65
2019-03-01T13:55:48.432Z,12.58
2019-03-01T13:58:16.902Z,16.30
2019-03-01T14:00:45.656Z,17.77
2019-03-01T14:03:15.487Z,13.55
2019-03-01T14:05:43.875Z,13.40
2019-03-01T14:08:12.288Z,12.35
2019-03-01T14:10:41.814Z,12.58
2019-03-01T14:13:14.431Z,14.80
2019-03-01T14:18:09.247Z,12.75
2019-03-01T14:20:37.781Z,16.25
2019-03-01T14:23:06.325Z,14.85
2019-03-01T14:25:34.812Z,8.98
2019-03-01T14:28:05.150Z,14.95
2019-03-01T14:30:33.754Z,10.90
2019-03-01T14:33:02.093Z,19.07
2019-03-01T14:35:30.483Z,14.87
2019-03-01T14:37:58.855Z,12.73
2019-03-01T14:40:27.720Z,17.75
2019-03-01T14:42:56.293Z,13.28
2019-03-01T14:45:25.944Z,12.33
2019-03-01T14:47:55.726Z,11.53
2019-03-01T14:50:25.016Z,12.98
2019-03-01T14:52:58.470Z,14.18
2019-03-01T14:55:27.438Z,11.73
2019-03-01T14:58:03.080Z,14.03
2019-03-01T15:00:39.281Z,15.35
2019-03-01T15:03:31.120Z,11.08
2019-03-01T15:05:59.454Z,9.55
2019-03-01T15:08:27.945Z,8.83
2019-03-01T15:10:56.619Z,12.50
2019-03-01T15:13:25.097Z,14.38
2019-03-01T15:15:53.549Z,12.15
2019-03-01T15:18:21.999Z,12.90
2019-03-01T15:20:50.355Z,13.05
2019-03-01T15:23:20.780Z,12.25
2019-03-01T15:25:49.153Z,13.90
2019-03-01T15:28:17.902Z,11.12
2019-03-01T15:30:47.285Z,13.20
2019-03-01T15:33:16.171Z,14.45
2019-03-01T15:35:45.336Z,7.28
2019-03-01T15:38:13.659Z,10.93
2019-03-01T15:40:42.087Z,10.35
2019-03-01T15:43:10.567Z,10.13
2019-03-01T15:45:39.880Z,10.50
2019-03-01T15:48:09.093Z,9.58
2019-03-01T15:50:37.624Z,10.60
2019-03-01T15:53:05.987Z,8.68
2019-03-01T15:55:34.330Z,8.40
2019-03-01T15:58:02.708Z,10.20
2019-03-01T16:00:31.216Z,8.78
2019-03-01T16:03:00.502Z,9.60
2019-03-01T16:05:29.158Z,7.58
2019-03-01T16:07:58.028Z,8.40
2019-03-01T16:10:26.736Z,9.00
2019-03-01T16:12:54.935Z,11.05
2019-03-01T16:15:23.228Z,8.15
2019-03-01T16:17:51.616Z,6.95
2019-03-01T16:20:20.141Z,11.05
2019-03-01T16:22:56.076Z,6.80
2019-03-01T16:25:24.584Z,6.45
2019-03-01T16:27:54.212Z,6.45
2019-03-01T16:30:23.352Z,6.90
2019-03-01T16:32:51.609Z,6.33
2019-03-01T16:35:19.989Z,7.08
2019-03-01T16:40:25.016Z,6.92
2019-03-01T16:42:54.665Z,6.83
2019-03-01T16:45:23.619Z,7.75
2019-03-01T16:47:51.976Z,7.65
2019-03-01T16:50:20.397Z,10.70
2019-03-01T16:52:49.020Z,5.05
2019-03-01T16:55:18.001Z,11.50
2019-03-01T16:57:48.672Z,6.97
2019-03-01T17:00:18.120Z,7.87
2019-03-01T17:02:47.997Z,8.40
2019-03-01T17:05:16.649Z,7.42
2019-03-01T17:07:44.983Z,3.47
2019-03-01T17:10:15.600Z,9.10
2019-03-01T17:15:14.897Z,7.47
2019-03-01T17:17:43.975Z,7.70
2019-03-01T17:20:12.398Z,6.12
2019-03-01T17:22:40.883Z,10.78
2019-03-01T17:25:09.368Z,8.60
2019-03-01T17:27:40.036Z,9.28
2019-03-01T17:30:11.118Z,10.05
2019-03-01T17:32:39.914Z,10.20
2019-03-01T17:35:08.936Z,9.05
2019-03-01T17:37:37.998Z,9.05
2019-03-01T17:40:06.883Z,8.43
2019-03-01T17:42:35.141Z,7.75
2019-03-01T17:45:04.499Z,5.90
2019-03-01T17:47:33.129Z,6.17
2019-03-01T17:50:01.670Z,5.20
2019-03-01T17:52:33.710Z,5.95
2019-03-01T17:55:02.768Z,6.17
2019-03-01T17:57:32.946Z,6.17
2019-03-01T18:00:02.593Z,5.00
2019-03-01T18:02:30.831Z,5.62
2019-03-01T18:04:59.079Z,6.58
2019-03-01T18:07:28.272Z,5.35
2019-03-01T18:09:56.951Z,4.00
2019-03-01T18:12:25.756Z,3.45
2019-03-01T18:14:54.343Z,5.00
2019-03-01T18:17:23.165Z,5.08
2019-03-01T18:19:51.560Z,5.78
2019-03-01T18:22:22.909Z,5.03
2019-03-01T18:27:19.331Z,4.75
2019-03-01T18:29:47.904Z,3.65
2019-03-01T18:32:17.241Z,4.17
2019-03-01T18:34:45.804Z,4.42
2019-03-01T18:37:19.415Z,4.67
2019-03-01T18:39:45.460Z,4.25
2019-03-01T18:42:38.069Z,3.47
2019-03-01T18:45:07.070Z,4.62
2019-03-01T18:47:37.972Z,4.87
2019-03-01T18:50:09.966Z,5.50
2019-03-01T18:52:39.786Z,5.75
2019-03-01T18:55:10.108Z,6.22
2019-03-01T18:57:39.693Z,5.85
2019-03-01T19:00:32.455Z,7.40
2019-03-01T19:03:05.499Z,5.37
2019-03-01T19:05:36.678Z,6.58
2019-03-01T19:08:06.499Z,5.80
2019-03-01T19:10:35.877Z,5.20
2019-03-01T19:13:08.275Z,4.65
2019-03-01T19:15:38.399Z,4.95
2019-03-01T19:18:08.127Z,5.45
2019-03-01T19:20:38.024Z,6.08
2019-03-01T19:23:08.485Z,5.45
2019-03-01T19:25:38.281Z,4.45
2019-03-01T19:28:08.152Z,4.65
2019-03-01T19:30:37.897Z,4.47
2019-03-01T19:33:07.901Z,6.05
2019-03-01T19:35:38.637Z,6.92
2019-03-01T19:38:08.916Z,6.62
2019-03-01T19:40:39.193Z,6.70
2019-03-01T19:43:10.299Z,5.12
2019-03-01T19:45:41.770Z,5.97
2019-03-01T19:48:11.933Z,4.80
2019-03-01T19:50:43.575Z,5.40
2019-03-01T19:53:13.741Z,5.87
2019-03-01T19:55:44.033Z,4.95
2019-03-01T19:58:16.862Z,5.67
2019-03-01T20:00:46.567Z,5.62
2019-03-01T20:03:16.313Z,5.72
2019-03-01T20:05:52.647Z,5.30
2019-03-01T20:08:22.431Z,5.10
2019-03-01T20:10:52.578Z,5.30
2019-03-01T20:13:22.405Z,4.55
2019-03-01T20:15:52.872Z,5.40
2019-03-01T20:20:51.590Z,6.08
2019-03-01T20:26:11.627Z,6.55
2019-03-01T20:28:43.648Z,7.30
2019-03-01T20:31:14.912Z,6.97
2019-03-01T20:33:45.146Z,4.58
2019-03-01T20:36:17.640Z,5.75
2019-03-01T20:38:47.178Z,5.70
2019-03-01T20:41:17.145Z,5.70
2019-03-01T20:43:47.344Z,5.42
2019-03-01T20:46:17.529Z,5.97
2019-03-01T20:48:47.557Z,5.75
2019-03-01T20:51:17.451Z,6.47
2019-03-01T20:53:49.501Z,6.12
2019-03-01T20:56:20.031Z,6.53
2019-03-01T20:58:49.981Z,6.47
2019-03-01T21:01:22.538Z,7.42
2019-03-01T21:03:52.536Z,4.62
2019-03-01T21:06:22.146Z,6.37
2019-03-01T21:08:52.516Z,7.72
2019-03-01T21:11:25.317Z,7.30
2019-03-01T21:13:55.292Z,4.97
2019-03-01T21:16:25.068Z,6.87
2019-03-01T21:18:53.853Z,5.80
2019-03-01T21:21:25.593Z,5.92
2019-03-01T21:23:54.161Z,5.90
2019-03-01T21:26:24.073Z,5.97
2019-03-01T21:28:53.512Z,5.85
2019-03-01T21:31:23.187Z,4.90
2019-03-01T21:33:52.734Z,5.43
2019-03-01T21:36:22.913Z,6.22
2019-03-01T21:41:19.871Z,4.85
2019-03-01T21:43:48.729Z,5.03
2019-03-01T21:46:18.207Z,6.40
2019-03-01T21:48:47.481Z,6.22
2019-03-01T21:51:18.522Z,4.70
2019-03-01T21:53:47.123Z,3.65
2019-03-01T21:56:34.725Z,3.72
2019-03-01T21:59:04.290Z,4.75
2019-03-01T22:01:33.083Z,4.25
2019-03-01T22:04:02.529Z,3.10
2019-03-01T22:09:00.972Z,4.15
2019-03-01T22:11:29.364Z,3.70
2019-03-01T22:13:59.188Z,3.83
2019-03-01T22:16:27.458Z,3.30
2019-03-01T22:18:58.735Z,3.40
2019-03-01T22:21:26.616Z,3.55
2019-03-01T22:23:55.481Z,3.27
2019-03-01T22:26:24.113Z,3.52
2019-03-01T22:28:52.889Z,3.55
2019-03-01T22:31:21.926Z,3.37
2019-03-01T22:33:52.653Z,3.80
2019-03-01T22:36:21.115Z,2.52
2019-03-01T22:38:49.381Z,3.08
2019-03-01T22:41:18.028Z,3.60
2019-03-01T22:43:46.361Z,3.52
2019-03-01T22:46:15.124Z,2.98
2019-03-01T22:48:47.142Z,3.60
2019-03-01T22:51:14.431Z,2.92
2019-03-01T22:53:44.203Z,3.00
2019-03-01T22:56:13.143Z,3.02
2019-03-01T22:58:41.368Z,2.72
2019-03-01T23:01:16.744Z,3.20
2019-03-01T23:03:51.572Z,3.65
2019-03-01T23:06:20.561Z,3.08
2019-03-01T23:08:48.763Z,3.05
2019-03-01T23:11:17.071Z,2.50
2019-03-01T23:13:45.418Z,3.10
2019-03-01T23:16:15.967Z,2.50
2019-03-01T23:18:44.156Z,3.05
2019-03-01T23:21:12.504Z,2.70
2019-03-01T23:23:40.952Z,2.62
2019-03-01T23:26:09.481Z,2.52
2019-03-01T23:28:40.765Z,2.85
2019-03-01T23:31:08.124Z,2.60
2019-03-01T23:33:36.361Z,3.05
2019-03-01T23:36:05.112Z,2.92
2019-03-01T23:38:33.411Z,2.33
2019-03-01T23:41:01.741Z,2.50
2019-03-01T23:43:30.876Z,2.92
2019-03-01T23:46:00.054Z,3.17
2019-03-01T23:48:28.573Z,3.40
2019-03-01T23:50:56.917Z,2.85
2019-03-01T23:53:25.185Z,3.20
2019-03-01T23:55:54.693Z,3.35
2019-03-01T23:58:23.632Z,3.33
